Current | Forecast
Updated: 9:00 AM JST on December 14, 2017
Observed at Toyama Airport, Japan
Temperature 34°F
Humidity 93%
Dew Point 32°F
Wind North at 0 mph
Pressure 30.33 in (Rising)
Conditions Light Snow Showers
Visibility 4.3 miles
UV 0 out of 16
Clouds (FEW) : 300 ft
Scattered Clouds (SCT) : 1000 ft
Mostly Cloudy (BKN) : 3000 ft
Yesterday's Maximum 34°F
Yesterday's Minimum 32°F approx.
Yesterday's Heating Degree Days 32 approx.
Sunrise6:54 AM JST
Sunset4:35 PM JST
Moon Rise2:49 AM JST
Moon Set2:18 PM JST
Moon PhaseMoon Phase
Waning Crescent
Raw METARMETAR RJNT 140000Z 00000KT 7000 -SHSN FEW003 SCT010 BKN030 01/00 Q1027


Monday
. High: 82° F.
Tuesday
. High: 78° F.
Wednesday
. High: 71° F.
Thursday
. High: 75° F.
Friday
. High: 75° F.
Saturday
. High: 71° F.
Sunday
. High: 75° F.
Monday
. High: 75° F.

Units: English | Metric

Find the Weather for any City, State or Zipcode, or Country:

U.S. State List | Severe Weather | Tropical Storms | Ski Conditions
United States | Canada | Central America | South America | Asia | Europe | Australia | Africa | Islands

Weather Underground

© Copyright 2017
The Weather Company, LLC